Map

Track Data

SID SEASON NUMBER BASIN SUBBASIN NAME ISO_TIME NATURE LAT LON WMO_WIND WMO_PRES WMO_AGENCY TRACK_TYPE DIST2LAND LANDFALL IFLAG USA_AGENCY USA_ATCF_ID USA_LAT USA_LON USA_RECORD USA_STATUS USA_WIND USA_PRES USA_SSHS USA_R34_NE USA_R34_SE USA_R34_SW USA_R34_NW USA_R50_NE USA_R50_SE USA_R50_SW USA_R50_NW USA_R64_NE USA_R64_SE USA_R64_SW USA_R64_NW USA_POCI USA_ROCI USA_RMW USA_EYE TOKYO_LAT TOKYO_LON TOKYO_GRADE TOKYO_WIND TOKYO_PRES TOKYO_R50_DIR TOKYO_R50_LONG TOKYO_R50_SHORT TOKYO_R30_DIR TOKYO_R30_LONG TOKYO_R30_SHORT TOKYO_LAND CMA_LAT CMA_LON CMA_CAT CMA_WIND CMA_PRES HKO_LAT HKO_LON HKO_CAT HKO_WIND HKO_PRES NEWDELHI_LAT NEWDELHI_LON NEWDELHI_GRADE NEWDELHI_WIND NEWDELHI_PRES NEWDELHI_CI NEWDELHI_DP NEWDELHI_POCI REUNION_LAT REUNION_LON REUNION_TYPE REUNION_WIND REUNION_PRES REUNION_TNUM REUNION_CI REUNION_RMW REUNION_R34_NE REUNION_R34_SE REUNION_R34_SW REUNION_R34_NW REUNION_R50_NE REUNION_R50_SE REUNION_R50_SW REUNION_R50_NW REUNION_R64_NE REUNION_R64_SE REUNION_R64_SW REUNION_R64_NW BOM_LAT BOM_LON BOM_TYPE BOM_WIND BOM_PRES BOM_TNUM BOM_CI BOM_RMW BOM_R34_NE BOM_R34_SE BOM_R34_SW BOM_R34_NW BOM_R50_NE BOM_R50_SE BOM_R50_SW BOM_R50_NW BOM_R64_NE BOM_R64_SE BOM_R64_SW BOM_R64_NW BOM_ROCI BOM_POCI BOM_EYE BOM_POS_METHOD BOM_PRES_METHOD NADI_LAT NADI_LON NADI_CAT NADI_WIND NADI_PRES WELLINGTON_LAT WELLINGTON_LON WELLINGTON_WIND WELLINGTON_PRES DS824_LAT DS824_LON DS824_STAGE DS824_WIND DS824_PRES TD9636_LAT TD9636_LON TD9636_STAGE TD9636_WIND TD9636_PRES TD9635_LAT TD9635_LON TD9635_WIND TD9635_PRES TD9635_ROCI NEUMANN_LAT NEUMANN_LON NEUMANN_CLASS NEUMANN_WIND NEUMANN_PRES MLC_LAT MLC_LON MLC_CLASS MLC_WIND MLC_PRES USA_GUST BOM_GUST BOM_GUST_PER REUNION_GUST REUNION_GUST_PER USA_SEAHGT USA_SEARAD_NE USA_SEARAD_SE USA_SEARAD_SW USA_SEARAD_NW STORM_SPEED STORM_DIR
1969183N13269 1969 37 EP MM AVA 1969-07-01 18:00:00 TS 12.7000 -91.5000 25 hurdat_epa main 136 134 O________O____ hurdat_epa EP011969 12.7000 -91.5000 TD 25 -1 12.7000 -91.5000 TC 25 15 283
1969183N13269 1969 37 EP MM AVA 1969-07-01 21:00:00 TS 12.8632 -92.2246 main 148 148 P________P____ EP011969 12.8632 -92.2246 TD 25 -1 12.8632 -92.2246 TC 25 12 284
1969183N13269 1969 37 EP MM AVA 1969-07-02 00:00:00 TS 13.0000 -92.7000 25 hurdat_epa main 165 163 O________OO___ hurdat_epa EP011969 13.0000 -92.7000 TD 25 -1 13.0000 -92.7000 TC 25 13.0000 -92.7000 1 6 292
1969183N13269 1969 37 EP MM AVA 1969-07-02 03:00:00 TS 13.0964 -92.8060 main 163 163 P________PP___ EP011969 13.0995 -92.8003 TD 25 -1 13.0995 -92.8003 TC 25 13.0716 -92.8516 1 3 311
1969183N13269 1969 37 EP MM AVA 1969-07-02 06:00:00 TS 13.1944 -92.9288 25 hurdat_epa main 163 163 O________OP___ hurdat_epa EP011969 13.2000 -92.9000 TD 25 -1 13.2000 -92.9000 TC 25 13.1647 -93.0824 1 6 292
1969183N13269 1969 37 EP MM AVA 1969-07-02 09:00:00 TS 13.3158 -93.3747 main 186 186 P________PP___ EP011969 13.3195 -93.3504 TD 25 -1 13.3195 -93.3504 TC 25 13.3006 -93.4718 1 12 285
1969183N13269 1969 37 EP MM AVA 1969-07-02 12:00:00 TS 13.5000 -94.1000 25 999 hurdat_epa main 225 225 O________OO___ hurdat_epa EP011969 13.5000 -94.1000 TD 25 999 -1 13.5000 -94.1000 TC 25 999 13.5000 -94.1000 1 17 286
1969183N13269 1969 37 EP MM AVA 1969-07-02 15:00:00 TS 13.7824 -95.0971 main 243 173 P________PP___ EP011969 13.7853 -95.1173 TD 25 -1 13.7853 -95.1173 TC 25 13.7710 -95.0164 1 22 286
1969183N13269 1969 37 EP MM AVA 1969-07-02 18:00:00 TS 14.0952 -96.2690 25 hurdat_epa main 170 149 O________OP___ hurdat_epa EP011969 14.1000 -96.3000 TD 25 -1 14.1000 -96.3000 TC 25 14.0761 -96.1448 1 23 285
1969183N13269 1969 37 EP MM AVA 1969-07-02 21:00:00 TS 14.3833 -97.4351 main 159 159 P________PP___ EP011969 14.3872 -97.4499 TD 35 0 14.3872 -97.4499 TC 35 14.3677 -97.3761 1 23 283
1969183N13269 1969 37 EP MM AVA 1969-07-03 00:00:00 TS 14.6000 -98.6000 45 hurdat_epa main 178 178 O________OO___ hurdat_epa EP011969 14.6000 -98.6000 TS 45 0 14.6000 -98.6000 TC 45 14.6000 -98.6000 2 22 278
1969183N13269 1969 37 EP MM AVA 1969-07-03 03:00:00 TS 14.6841 -99.7268 main 214 214 P________PP___ EP011969 14.6797 -99.7305 TS 45 0 14.6797 -99.7305 TC 45 14.7020 -99.7120 2 21 273
1969183N13269 1969 37 EP MM AVA 1969-07-03 06:00:00 TS 14.7090 -100.797 45 hurdat_epa main 252 252 O________OP___ hurdat_epa EP011969 14.7000 -100.800 TS 45 0 14.7000 -100.800 TC 45 14.7448 -100.787 2 20 272
1969183N13269 1969 37 EP MM AVA 1969-07-03 09:00:00 TS 14.7408 -101.807 main 299 299 P________PP___ EP011969 14.7347 -101.810 TS 45 0 14.7347 -101.810 TC 45 14.7650 -101.793 2 18 273
1969183N13269 1969 37 EP MM AVA 1969-07-03 12:00:00 TS 14.8000 -102.700 45 hurdat_epa main 327 327 O________OO___ hurdat_epa EP011969 14.8000 -102.700 TS 45 0 14.8000 -102.700 TC 45 14.8000 -102.700 2 16 277
1969183N13269 1969 37 EP MM AVA 1969-07-03 15:00:00 TS 14.9354 -103.450 main 359 348 P________PP___ EP011969 14.9420 -103.445 TS 45 0 14.9420 -103.445 TC 45 14.9091 -103.471 2 14 282
1969183N13269 1969 37 EP MM AVA 1969-07-03 18:00:00 TS 15.0879 -104.109 45 hurdat_epa main 359 359 O________OP___ hurdat_epa EP011969 15.1000 -104.100 TS 45 0 15.1000 -104.100 TC 45 15.0394 -104.147 2 13 282
1969183N13269 1969 37 EP MM AVA 1969-07-03 21:00:00 TS 15.2008 -104.755 main 373 373 P________PP___ EP011969 15.2072 -104.750 TS 45 0 15.2072 -104.750 TC 45 15.1751 -104.774 2 13 280
1969183N13269 1969 37 EP MM AVA 1969-07-04 00:00:00 TS 15.3000 -105.400 45 hurdat_epa main 391 391 O________OO___ hurdat_epa EP011969 15.3000 -105.400 TS 45 0 15.3000 -105.400 TC 45 15.3000 -105.400 2 13 279
1969183N13269 1969 37 EP MM AVA 1969-07-04 03:00:00 TS 15.4046 -106.102 main 426 426 P________PP___ EP011969 15.4073 -106.092 TS 45 0 15.4073 -106.092 TC 45 15.3938 -106.138 2 14 278
1969183N13269 1969 37 EP MM AVA 1969-07-04 06:00:00 TS 15.4946 -106.815 45 hurdat_epa main 465 465 O________OP___ hurdat_epa EP011969 15.5000 -106.800 TS 45 0 15.5000 -106.800 TC 45 15.4731 -106.875 2 14 276
1969183N13269 1969 37 EP MM AVA 1969-07-04 09:00:00 TS 15.5542 -107.539 main 494 494 P________PP___ EP011969 15.5575 -107.530 TS 45 0 15.5575 -107.530 TC 45 15.5408 -107.575 2 13 275
1969183N13269 1969 37 EP MM AVA 1969-07-04 12:00:00 TS 15.6000 -108.200 45 hurdat_epa main 540 540 O________OO___ hurdat_epa EP011969 15.6000 -108.200 TS 45 0 15.6000 -108.200 TC 45 15.6000 -108.200 2 12 275
1969183N13269 1969 37 EP MM AVA 1969-07-04 15:00:00 TS 15.6486 -108.748 main 577 577 P________PP___ EP011969 15.6498 -108.753 TS 45 0 15.6498 -108.753 TC 45 15.6441 -108.729 2 10 276
1969183N13269 1969 37 EP MM AVA 1969-07-04 18:00:00 TS 15.6968 -109.196 45 hurdat_epa main 608 608 O________OP___ hurdat_epa EP011969 15.7000 -109.200 TS 45 0 15.7000 -109.200 TC 45 15.6839 -109.178 2 8 277
1969183N13269 1969 37 EP MM AVA 1969-07-04 21:00:00 TS 15.7403 -109.577 main 638 638 P________PP___ EP011969 15.7424 -109.580 TS 45 0 15.7424 -109.580 TC 45 15.7319 -109.563 2 7 279
1969183N13269 1969 37 EP MM AVA 1969-07-05 00:00:00 TS 15.8000 -109.900 45 hurdat_epa main 653 653 O________OO___ hurdat_epa EP011969 15.8000 -109.900 TS 45 0 15.8000 -109.900 TC 45 15.8000 -109.900 2 6 283
1969183N13269 1969 37 EP MM AVA 1969-07-05 03:00:00 TS 15.8870 -110.220 main 670 670 P________PP___ EP011969 15.8850 -110.215 TS 45 0 15.8850 -110.215 TC 45 15.8950 -110.238 2 6 289
1969183N13269 1969 37 EP MM AVA 1969-07-05 06:00:00 TS 16.0024 -110.506 45 hurdat_epa main 688 688 O________OP___ hurdat_epa EP011969 16.0000 -110.500 TS 45 0 16.0000 -110.500 TC 45 16.0122 -110.532 2 6 296
1969183N13269 1969 37 EP MM AVA 1969-07-05 09:00:00 TS 16.1436 -110.769 main 707 701 P________PP___ EP011969 16.1425 -110.765 TS 45 0 16.1425 -110.765 TC 45 16.1483 -110.785 2 6 302
1969183N13269 1969 37 EP MM AVA 1969-07-05 12:00:00 TS 16.3000 -111.000 45 hurdat_epa main 712 712 O________OO___ hurdat_epa EP011969 16.3000 -111.000 TS 45 0 16.3000 -111.000 TC 45 16.3000 -111.000 2 5 305
1969183N13269 1969 37 EP MM AVA 1969-07-05 15:00:00 TS 16.4461 -111.219 main 724 718 P________PP___ EP011969 16.4425 -111.223 TS 45 0 16.4425 -111.223 TC 45 16.4605 -111.206 2 5 309
1969183N13269 1969 37 EP MM AVA 1969-07-05 18:00:00 TS 16.6070 -111.395 45 hurdat_epa main 719 700 O________OP___ hurdat_epa EP011969 16.6000 -111.400 TS 45 0 16.6000 -111.400 TC 45 16.6349 -111.375 2 5 320
1969183N13269 1969 37 EP MM AVA 1969-07-05 21:00:00 TS 16.8033 -111.525 main 700 680 P________PP___ EP011969 16.8000 -111.530 TS 45 0 16.8000 -111.530 TC 45 16.8168 -111.506 2 4 333
1969183N13269 1969 37 EP MM AVA 1969-07-06 00:00:00 TS 17.0000 -111.600 45 hurdat_epa main 680 669 O________OO___ hurdat_epa EP011969 17.0000 -111.600 TS 45 0 17.0000 -111.600 TC 45 17.0000 -111.600 2 4 346
1969183N13269 1969 37 EP MM AVA 1969-07-06 03:00:00 TS 17.1558 -111.618 main 659 648 P________PP___ EP011969 17.1500 -111.608 TS 45 0 17.1500 -111.608 TC 45 17.1790 -111.661 2 3 359
1969183N13269 1969 37 EP MM AVA 1969-07-06 06:00:00 TS 17.3115 -111.618 45 hurdat_epa main 648 626 O________OP___ hurdat_epa EP011969 17.3000 -111.600 TS 45 0 17.3000 -111.600 TC 45 17.3574 -111.688 2 4 352
1969183N13269 1969 37 EP MM AVA 1969-07-06 09:00:00 TS 17.5064 -111.659 main 629 607 P________PP___ EP011969 17.5000 -111.650 TS 45 0 17.5000 -111.650 TC 45 17.5321 -111.695 2 4 349
1969183N13269 1969 37 EP MM AVA 1969-07-06 12:00:00 TS 17.7000 -111.700 45 hurdat_epa main 607 597 O________OO___ hurdat_epa EP011969 17.7000 -111.700 TS 45 0 17.7000 -111.700 TC 45 17.7000 -111.700 2 4 352
1969183N13269 1969 37 EP MM AVA 1969-07-06 15:00:00 TS 17.8550 -111.705 main 586 575 P________PP___ EP011969 17.8575 -111.700 TS 45 0 17.8575 -111.700 TC 45 17.8450 -111.725 2 3 0
1969183N13269 1969 37 EP MM AVA 1969-07-06 18:00:00 TS 17.9970 -111.710 45 hurdat_epa main 575 565 O________OP___ hurdat_epa EP011969 18.0000 -111.700 TS 45 0 18.0000 -111.700 TC 45 17.9850 -111.750 2 3 352
1969183N13269 1969 37 EP MM AVA 1969-07-06 21:00:00 TS 18.1405 -111.755 main 568 547 P________PP___ EP011969 18.1425 -111.750 TS 35 0 18.1425 -111.750 TC 35 18.1325 -111.775 2 3 343
1969183N13269 1969 37 EP MM AVA 1969-07-07 00:00:00 TS 18.3000 -111.800 25 hurdat_epa main 547 526 O________OO___ hurdat_epa EP011969 18.3000 -111.800 TD 25 -1 18.3000 -111.800 TC 25 18.3000 -111.800 1 4 353
1969183N13269 1969 37 EP MM AVA 1969-07-07 03:00:00 TS 18.4873 -111.805 main 526 505 P________PP___ EP011969 18.4850 -111.800 TD 25 -1 18.4850 -111.800 TC 25 18.4966 -111.825 1 4 357
1969183N13269 1969 37 EP MM AVA 1969-07-07 06:00:00 TS 18.7028 -111.808 25 hurdat_epa main 505 488 O________OP___ hurdat_epa EP011969 18.7000 -111.800 TD 25 -1 18.7000 -111.800 TC 25 18.7175 -111.850 1 5 352
1969183N13269 1969 37 EP MM AVA 1969-07-07 09:00:00 TS 18.9439 -111.873 main 488 458 P________PP___ EP011969 18.9425 -111.872 TD 25 -1 18.9425 -111.872 TC 25 18.9547 -111.875 1 5 350
1969183N13269 1969 37 EP MM AVA 1969-07-07 12:00:00 TS 19.2000 -111.900 25 hurdat_epa main 458 433 O________OO___ hurdat_epa EP011969 19.2000 -111.900 TD 25 -1 19.2000 -111.900 TC 25 19.2000 -111.900 1 5 10
1969183N13269 1969 37 EP MM AVA 1969-07-07 15:00:00 TS 19.4500 -111.780 main 423 394 P________P____ EP011969 19.4500 -111.780 TD 25 -1 19.4500 -111.780 TC 25 1 6 30
1969183N13269 1969 37 EP MM AVA 1969-07-07 18:00:00 TS 19.7000 -111.600 25 hurdat_epa main 394 365 O________O____ hurdat_epa EP011969 19.7000 -111.600 TD 25 -1 19.7000 -111.600 TC 25 1 6 37
1969183N13269 1969 37 EP MM AVA 1969-07-07 21:00:00 TS 19.9350 -111.390 main 365 330 P________P____ EP011969 19.9350 -111.390 TD 25 -1 19.9350 -111.390 TC 25 1 6 30
1969183N13269 1969 37 EP MM AVA 1969-07-08 00:00:00 TS 20.2000 -111.300 25 hurdat_epa main 330 304 O________O____ hurdat_epa EP011969 20.2000 -111.300 TD 25 -1 20.2000 -111.300 TC 25 6 356
1969183N13269 1969 37 EP MM AVA 1969-07-08 03:00:00 TS 20.5271 -111.423 main 304 284 P________P____ EP011969 20.5271 -111.423 TD 25 -1 20.5271 -111.423 TC 25 8 326
1969183N13269 1969 37 EP MM AVA 1969-07-08 06:00:00 TS 20.9000 -111.800 25 hurdat_epa main 290 288 O________O____ hurdat_epa EP011969 20.9000 -111.800 TD 25 -1 20.9000 -111.800 TC 25 12 309
1969183N13269 1969 37 EP MM AVA 1969-07-08 09:00:00 TS 21.2960 -112.429 main 305 305 P________P____ EP011969 21.2960 -112.429 TD 25 -1 21.2960 -112.429 TC 25 15 302
1969183N13269 1969 37 EP MM AVA 1969-07-08 12:00:00 TS 21.7000 -113.200 25 hurdat_epa main 343 O________O____ hurdat_epa EP011969 21.7000 -113.200 TD 25 -1 21.7000 -113.200 TC 25 16 299

About IBTrACS Database

This database is a web-friendly format of International Best Track Archive for Climate Stewardship (IBTrACS), a global best track data archive curated by NOAA dating back to 1842.

Updated: 2021-12-06